Time;durP1;ratioP1;P1;durP2;ratioP2;P2;SDS_P1;SDS_P2;PMS_P1;PMS_P2;Temp;Humidity;BMP_temperature;BMP_pressure;BME280_temperature;BME280_humidity;BME280_pressure;Samples;Min_cycle;Max_cycle;Signal;HPM_P1;HPM_P2
2023/04/01 00:00:14;;;;;;;8.87;7.10;;;;;20.50;98228.00;;;;2087717;28;20715;-69
2023/04/01 00:01:14;;;;;;;10.90;7.50;;;;;20.50;98228.00;;;;2086543;28;20228;-68
2023/04/01 00:02:15;;;;;;;9.33;6.97;;;;;20.50;98231.00;;;;2078884;28;20205;-69
2023/04/01 00:03:15;;;;;;;7.77;6.73;;;;;20.50;98233.00;;;;2077685;28;20235;-69
2023/04/01 00:04:16;;;;;;;8.23;7.10;;;;;20.50;98232.00;;;;2087787;28;20213;-69
2023/04/01 00:05:17;;;;;;;8.20;6.57;;;;;20.50;98237.00;;;;2087008;28;20216;-69
2023/04/01 00:06:17;;;;;;;7.60;6.30;;;;;20.50;98229.00;;;;2083351;28;20453;-69
2023/04/01 00:07:18;;;;;;;7.87;7.07;;;;;20.50;98229.00;;;;2082304;28;20297;-68
2023/04/01 00:08:18;;;;;;;8.63;6.60;;;;;20.50;98224.00;;;;2087324;28;20460;-69
2023/04/01 00:09:19;;;;;;;7.17;6.27;;;;;20.50;98236.00;;;;2093198;28;20262;-68
2023/04/01 00:10:19;;;;;;;8.33;6.00;;;;;20.50;98224.00;;;;2086430;28;20248;-69
2023/04/01 00:11:20;;;;;;;7.03;5.93;;;;;20.50;98244.00;;;;2087327;28;20216;-69
2023/04/01 00:12:21;;;;;;;8.02;6.75;;;;;20.50;98232.00;;;;2087038;28;20296;-69
2023/04/01 00:13:21;;;;;;;6.87;5.73;;;;;20.50;98227.00;;;;2086716;28;20216;-69
2023/04/01 00:14:21;;;;;;;6.53;5.90;;;;;20.50;98233.00;;;;2084336;28;20213;-68
2023/04/01 00:15:22;;;;;;;6.63;5.17;;;;;20.50;98222.00;;;;2086616;28;20224;-69
2023/04/01 00:16:22;;;;;;;6.23;5.60;;;;;20.50;98222.00;;;;2087504;28;20221;-69
2023/04/01 00:17:22;;;;;;;6.60;5.90;;;;;20.50;98228.00;;;;2077877;28;20220;-68
2023/04/01 00:18:23;;;;;;;7.17;5.27;;;;;20.50;98226.00;;;;2078749;28;20241;-69
2023/04/01 00:19:23;;;;;;;7.60;5.70;;;;;20.50;98221.00;;;;2087443;28;20209;-68
2023/04/01 00:20:24;;;;;;;6.17;5.17;;;;;20.40;98225.00;;;;2080051;28;20235;-69
2023/04/01 00:21:25;;;;;;;7.20;6.13;;;;;20.40;98219.00;;;;2087626;28;20213;-68
2023/04/01 00:22:26;;;;;;;7.03;5.90;;;;;20.50;98224.00;;;;2086279;28;20648;-69
2023/04/01 00:23:26;;;;;;;7.93;5.90;;;;;20.40;98225.00;;;;2087512;28;21495;-69
2023/04/01 00:24:26;;;;;;;6.90;4.90;;;;;20.50;98227.00;;;;2086292;28;20228;-69
2023/04/01 00:25:27;;;;;;;6.57;4.80;;;;;20.50;98228.00;;;;2087719;28;20236;-68
2023/04/01 00:26:27;;;;;;;5.63;5.03;;;;;20.40;98237.00;;;;2086842;28;20224;-69
2023/04/01 00:27:27;;;;;;;6.77;5.43;;;;;20.40;98201.00;;;;2087380;28;20660;-68
2023/04/01 00:28:28;;;;;;;6.30;5.13;;;;;20.40;98221.00;;;;2087411;28;20595;-68
2023/04/01 00:29:30;;;;;;;6.43;5.23;;;;;20.40;98213.00;;;;2086350;28;20213;-69
2023/04/01 00:30:30;;;;;;;5.40;4.90;;;;;20.40;98218.00;;;;2087503;28;20223;-69
2023/04/01 00:31:30;;;;;;;10.20;5.77;;;;;20.40;98222.00;;;;2086726;28;20582;-69
2023/04/01 00:32:31;;;;;;;5.27;4.60;;;;;20.40;98227.00;;;;2087296;28;20595;-69
2023/04/01 00:33:32;;;;;;;6.50;4.50;;;;;20.40;98221.00;;;;2086754;28;20676;-68
2023/04/01 00:34:32;;;;;;;6.57;4.97;;;;;20.40;98208.00;;;;2087415;28;20305;-69
2023/04/01 00:35:32;;;;;;;6.63;4.33;;;;;20.40;98222.00;;;;2087553;28;20563;-69
2023/04/01 00:36:33;;;;;;;5.77;4.07;;;;;20.40;98168.00;;;;2086488;28;20530;-69
2023/04/01 00:37:35;;;;;;;4.73;3.83;;;;;20.40;98215.00;;;;2087787;28;20684;-69
2023/04/01 00:38:36;;;;;;;4.30;3.53;;;;;20.40;98225.00;;;;2086684;28;20228;-70
2023/04/01 00:39:36;;;;;;;5.63;4.77;;;;;20.40;98227.00;;;;2110342;23;20730;-76
2023/04/01 00:40:41;;;;;;;4.13;3.60;;;;;20.40;98209.00;;;;2091188;28;21037;-72
2023/04/01 00:41:42;;;;;;;4.78;4.10;;;;;20.40;98217.00;;;;2094339;28;20208;-76
2023/04/01 00:42:42;;;;;;;4.93;4.23;;;;;20.40;98211.00;;;;2105087;28;20200;-76
2023/04/01 00:43:44;;;;;;;4.50;4.10;;;;;20.40;98212.00;;;;2104468;28;20215;-75
2023/04/01 00:44:47;;;;;;;5.80;4.15;;;;;20.40;98216.00;;;;2105605;28;20218;-76
2023/04/01 00:45:48;;;;;;;4.63;4.20;;;;;20.40;98220.00;;;;2104764;28;20284;-76
2023/04/01 00:46:49;;;;;;;4.75;3.67;;;;;20.40;98220.00;;;;2105730;28;20223;-76
2023/04/01 00:47:49;;;;;;;5.23;3.60;;;;;20.40;98220.00;;;;2104424;28;20586;-76
2023/04/01 00:48:54;;;;;;;6.00;4.50;;;;;20.40;98213.00;;;;2105569;28;20808;-76
2023/04/01 00:49:54;;;;;;;5.18;3.40;;;;;20.40;98221.00;;;;2105146;28;20281;-76
2023/04/01 00:50:58;;;;;;;5.87;3.53;;;;;20.40;98215.00;;;;2088406;28;20691;-76
2023/04/01 00:51:59;;;;;;;5.15;3.85;;;;;20.40;98215.00;;;;2103579;28;20695;-76
2023/04/01 00:53:00;;;;;;;5.15;3.70;;;;;20.40;98205.00;;;;2093385;28;20235;-76
2023/04/01 00:54:01;;;;;;;4.60;3.53;;;;;20.40;98210.00;;;;2088439;28;20239;-76
2023/04/01 00:55:01;;;;;;;3.65;2.80;;;;;20.40;98211.00;;;;2095080;28;20211;-76
2023/04/01 00:56:02;;;;;;;3.83;3.37;;;;;20.40;98208.00;;;;2088296;28;20216;-76
2023/04/01 00:57:13;;;;;;;4.70;3.33;;;;;20.40;98217.00;;;;2088385;28;20323;-75
2023/04/01 00:58:14;;;;;;;4.45;3.00;;;;;20.40;98224.00;;;;2097925;28;20212;-75
2023/04/01 00:59:23;;;;;;;5.18;3.28;;;;;20.40;98215.00;;;;2088866;28;20307;-76
2023/04/01 01:00:24;;;;;;;4.65;3.25;;;;;20.40;98217.00;;;;2089224;28;20607;-76
2023/04/01 01:01:25;;;;;;;4.00;2.95;;;;;20.40;98209.00;;;;2100580;28;20219;-76
2023/04/01 01:02:25;;;;;;;3.83;2.97;;;;;20.30;98212.00;;;;2089467;28;20205;-77
2023/04/01 01:03:26;;;;;;;3.40;2.97;;;;;20.40;98207.00;;;;2080135;28;21755;-76
2023/04/01 01:04:28;;;;;;;3.33;2.67;;;;;20.40;98214.00;;;;2096329;28;20269;-76
2023/04/01 01:05:37;;;;;;;5.78;3.40;;;;;20.40;98207.00;;;;2097378;28;20216;-76
2023/04/01 01:06:39;;;;;;;5.43;3.15;;;;;20.40;98203.00;;;;2088099;28;20211;-75
2023/04/01 01:07:48;;;;;;;3.20;2.90;;;;;20.30;98216.00;;;;2087391;28;20242;-76
2023/04/01 01:09:03;;;;;;;4.15;3.38;;;;;20.30;98203.00;;;;2096110;28;20242;-75
2023/04/01 01:10:35;;;;;;;3.25;2.78;;;;;20.40;98181.00;;;;2097244;28;20273;-76
2023/04/01 01:11:49;;;;;;;3.72;2.83;;;;;20.30;98203.00;;;;2099560;28;20219;-75
2023/04/01 01:13:01;;;;;;;5.40;2.80;;;;;20.30;98220.00;;;;2093655;28;20274;-76
2023/04/01 01:14:13;;;;;;;3.70;2.75;;;;;20.30;98209.00;;;;2096051;28;20222;-76
2023/04/01 01:15:20;;;;;;;3.50;2.60;;;;;20.30;98209.00;;;;2088091;28;20715;-76
2023/04/01 01:16:26;;;;;;;3.33;2.85;;;;;20.30;98218.00;;;;2087225;28;20795;-76
2023/04/01 01:17:30;;;;;;;3.83;2.78;;;;;20.30;98207.00;;;;2096509;28;20231;-74
2023/04/01 01:18:35;;;;;;;4.50;2.40;;;;;20.30;98207.00;;;;2094986;28;20216;-75
2023/04/01 01:19:52;;;;;;;2.97;2.13;;;;;20.30;98204.00;;;;2105317;28;20656;-75
2023/04/01 01:21:17;;;;;;;3.35;2.60;;;;;20.30;98202.00;;;;2101339;28;20219;-75
2023/04/01 01:22:52;;;;;;;2.70;2.10;;;;;20.30;98209.00;;;;2096122;28;20269;-74
2023/04/01 01:24:17;;;;;;;3.00;2.10;;;;;20.30;98211.00;;;;2090049;28;20208;-75
2023/04/01 01:25:45;;;;;;;2.45;2.10;;;;;20.30;98207.00;;;;2097257;28;20216;-75
2023/04/01 01:27:04;;;;;;;3.70;2.30;;;;;20.30;98202.00;;;;2105414;28;20211;-74
2023/04/01 01:28:14;;;;;;;3.13;2.20;;;;;20.30;98197.00;;;;2089248;28;20274;-74
2023/04/01 01:29:44;;;;;;;3.20;2.60;;;;;20.30;98198.00;;;;2089293;28;20220;-74
2023/04/01 01:31:03;;;;;;;3.22;2.30;;;;;20.30;98207.00;;;;2084820;28;20213;-74
2023/04/01 01:32:25;;;;;;;3.05;2.40;;;;;20.30;98198.00;;;;2091946;28;20220;-75
2023/04/01 01:33:30;;;;;;;2.70;2.17;;;;;20.30;98196.00;;;;2097263;28;20216;-75
2023/04/01 01:35:04;;;;;;;2.63;2.10;;;;;20.30;98218.00;;;;2104550;28;20223;-76
2023/04/01 01:36:05;;;;;;;3.63;2.25;;;;;20.30;98194.00;;;;2102625;28;20306;-75
2023/04/01 01:37:11;;;;;;;3.28;2.42;;;;;20.20;98200.00;;;;2094309;28;20215;-75
2023/04/01 01:38:14;;;;;;;2.47;1.90;;;;;20.30;98191.00;;;;2081063;28;20659;-75
2023/04/01 01:39:14;;;;;;;2.20;1.90;;;;;20.30;98188.00;;;;2085290;28;20308;-75
2023/04/01 01:40:15;;;;;;;2.53;2.00;;;;;20.30;98201.00;;;;2087034;28;20228;-75
2023/04/01 01:41:15;;;;;;;2.90;2.10;;;;;20.30;98200.00;;;;2087978;28;20213;-75
2023/04/01 01:42:16;;;;;;;2.53;1.83;;;;;20.30;98200.00;;;;2081316;28;20206;-75
2023/04/01 01:43:18;;;;;;;2.70;1.57;;;;;20.30;98196.00;;;;2080921;28;20206;-76
2023/04/01 01:44:18;;;;;;;3.75;2.00;;;;;20.30;98191.00;;;;2082653;28;20952;-75
2023/04/01 01:45:19;;;;;;;2.57;2.00;;;;;20.30;98189.00;;;;2087921;28;20324;-76
2023/04/01 01:46:22;;;;;;;2.60;1.73;;;;;20.30;98195.00;;;;2086829;28;20220;-76
2023/04/01 01:47:22;;;;;;;3.00;2.25;;;;;20.30;98188.00;;;;2088059;28;20271;-76
2023/04/01 01:48:23;;;;;;;2.50;1.70;;;;;20.30;98195.00;;;;2096184;28;20705;-76
2023/04/01 01:49:23;;;;;;;2.60;1.60;;;;;20.30;98204.00;;;;2097230;28;20315;-75
2023/04/01 01:50:23;;;;;;;2.77;1.87;;;;;20.20;98195.00;;;;2087794;28;20209;-75
2023/04/01 01:51:24;;;;;;;1.83;1.53;;;;;20.30;98201.00;;;;2094902;28;20620;-75
2023/04/01 01:52:26;;;;;;;2.07;1.50;;;;;20.20;98191.00;;;;2095607;28;20250;-75
2023/04/01 01:53:26;;;;;;;2.38;1.92;;;;;20.20;98195.00;;;;2086892;28;20213;-75
2023/04/01 01:54:27;;;;;;;2.00;1.50;;;;;20.20;98197.00;;;;2104055;28;20281;-76
2023/04/01 01:55:30;;;;;;;2.03;1.83;;;;;20.30;98187.00;;;;2105110;28;20815;-76
2023/04/01 01:56:31;;;;;;;2.63;2.00;;;;;20.30;98197.00;;;;2088716;28;20269;-76
2023/04/01 01:57:33;;;;;;;2.40;1.70;;;;;20.30;98188.00;;;;2079515;28;20306;-75
2023/04/01 01:58:40;;;;;;;2.45;1.33;;;;;20.30;98189.00;;;;2095200;28;20216;-75
2023/04/01 01:59:40;;;;;;;1.45;1.10;;;;;20.30;98173.00;;;;2078897;28;20547;-75
2023/04/01 02:00:43;;;;;;;2.40;1.60;;;;;20.30;98184.00;;;;2075183;28;20217;-75
2023/04/01 02:01:46;;;;;;;1.92;1.23;;;;;20.30;98185.00;;;;2094112;28;20881;-74
2023/04/01 02:02:46;;;;;;;1.67;1.20;;;;;20.30;98191.00;;;;2095927;28;20200;-75
2023/04/01 02:03:46;;;;;;;2.60;1.40;;;;;20.30;98188.00;;;;2080049;28;20210;-75
2023/04/01 02:04:47;;;;;;;2.67;1.70;;;;;20.30;98193.00;;;;2079567;28;20213;-75
2023/04/01 02:05:48;;;;;;;1.93;1.40;;;;;20.30;98195.00;;;;2088107;28;20615;-75
2023/04/01 02:06:55;;;;;;;2.07;1.57;;;;;20.30;98190.00;;;;2086387;28;20729;-75
2023/04/01 02:08:26;;;;;;;2.00;1.20;;;;;20.30;98188.00;;;;2087124;28;20579;-75
2023/04/01 02:09:27;;;;;;;3.20;1.60;;;;;20.30;98188.00;;;;2096032;28;20247;-75
2023/04/01 02:10:27;;;;;;;2.03;1.47;;;;;20.20;98183.00;;;;2096247;28;20273;-75
2023/04/01 02:11:30;;;;;;;1.90;1.40;;;;;20.20;98174.00;;;;2087530;28;20228;-75
2023/04/01 02:12:30;;;;;;;1.25;0.98;;;;;20.20;98190.00;;;;2079440;28;20647;-76
2023/04/01 02:13:47;;;;;;;1.67;1.20;;;;;20.20;98185.00;;;;2087807;28;20240;-75
2023/04/01 02:14:57;;;;;;;1.73;1.30;;;;;20.20;98186.00;;;;2078523;28;20251;-75
2023/04/01 02:16:00;;;;;;;1.73;1.10;;;;;20.20;98191.00;;;;2076006;28;20244;-75
2023/04/01 02:17:06;;;;;;;1.88;1.25;;;;;20.20;98189.00;;;;2088152;28;20295;-76
2023/04/01 02:18:06;;;;;;;2.10;1.38;;;;;20.20;98191.00;;;;2080157;28;20213;-76
2023/04/01 02:19:10;;;;;;;3.90;1.30;;;;;20.20;98198.00;;;;2074304;28;20709;-75
2023/04/01 02:20:15;;;;;;;2.47;1.30;;;;;20.20;98191.00;;;;2079982;28;20233;-75
2023/04/01 02:21:16;;;;;;;1.88;1.25;;;;;20.20;98196.00;;;;2088491;28;20231;-76
2023/04/01 02:22:20;;;;;;;1.98;1.30;;;;;20.20;98194.00;;;;2086986;28;20209;-75
2023/04/01 02:23:20;;;;;;;1.75;1.27;;;;;20.20;98198.00;;;;2095981;28;20213;-75
2023/04/01 02:24:22;;;;;;;2.13;1.30;;;;;20.20;98197.00;;;;2096584;28;20223;-75
2023/04/01 02:25:33;;;;;;;1.73;1.02;;;;;20.20;98192.00;;;;2095848;28;20262;-76
2023/04/01 02:26:34;;;;;;;1.65;1.20;;;;;20.20;98197.00;;;;2089721;28;20283;-75
2023/04/01 02:27:34;;;;;;;2.43;1.40;;;;;20.20;98200.00;;;;2079281;28;20610;-76
2023/04/01 02:28:35;;;;;;;2.30;1.50;;;;;20.20;98197.00;;;;2087617;28;20294;-76
2023/04/01 02:29:35;;;;;;;1.90;1.33;;;;;20.20;98199.00;;;;2101543;28;20235;-75
2023/04/01 02:30:36;;;;;;;2.00;1.30;;;;;20.20;98199.00;;;;2095698;28;20285;-76
2023/04/01 02:31:36;;;;;;;1.60;1.02;;;;;20.20;98191.00;;;;2094388;28;20604;-75
2023/04/01 02:32:37;;;;;;;1.73;1.07;;;;;20.20;98196.00;;;;2094273;28;20248;-76
2023/04/01 02:33:38;;;;;;;1.43;1.10;;;;;20.20;98191.00;;;;2079844;28;20224;-76
2023/04/01 02:34:38;;;;;;;1.80;1.03;;;;;20.20;98195.00;;;;2087018;28;20513;-75
2023/04/01 02:35:39;;;;;;;1.20;0.90;;;;;20.20;98198.00;;;;2090384;28;20236;-76
2023/04/01 02:36:39;;;;;;;2.00;1.20;;;;;20.20;98200.00;;;;2091856;28;20219;-76
2023/04/01 02:37:42;;;;;;;1.97;0.97;;;;;20.20;98201.00;;;;2092639;28;20726;-73
2023/04/01 02:38:43;;;;;;;2.03;1.25;;;;;20.20;98199.00;;;;2089896;28;20213;-75
2023/04/01 02:39:43;;;;;;;2.30;0.90;;;;;20.20;98195.00;;;;2079495;28;21009;-75
2023/04/01 02:40:48;;;;;;;1.47;1.10;;;;;20.20;98204.00;;;;2091913;28;21060;-75
2023/04/01 02:41:49;;;;;;;2.22;1.10;;;;;20.20;98194.00;;;;2095504;28;20236;-75
2023/04/01 02:42:49;;;;;;;1.80;1.07;;;;;20.20;98201.00;;;;2086576;28;20592;-76
2023/04/01 02:43:50;;;;;;;1.97;1.00;;;;;20.20;98206.00;;;;2097899;28;20565;-75
2023/04/01 02:44:50;;;;;;;1.87;0.80;;;;;20.20;98202.00;;;;2095844;28;20736;-75
2023/04/01 02:45:51;;;;;;;1.07;0.90;;;;;20.20;98209.00;;;;2096199;28;20238;-75
2023/04/01 02:46:52;;;;;;;1.93;0.83;;;;;20.20;98204.00;;;;2096401;28;20583;-75
2023/04/01 02:47:52;;;;;;;1.17;0.98;;;;;20.20;98195.00;;;;2096804;28;20205;-75
2023/04/01 02:48:53;;;;;;;1.23;0.83;;;;;20.20;98199.00;;;;2103690;28;20235;-75
2023/04/01 02:49:58;;;;;;;1.50;0.90;;;;;20.10;98210.00;;;;2103749;28;20776;-76
2023/04/01 02:50:58;;;;;;;1.50;0.90;;;;;20.20;98201.00;;;;2096300;28;20827;-75
2023/04/01 02:51:59;;;;;;;1.60;0.80;;;;;20.20;98197.00;;;;2096090;28;20224;-75
2023/04/01 02:52:59;;;;;;;1.83;1.00;;;;;20.20;98194.00;;;;2096720;28;20289;-75
2023/04/01 02:54:00;;;;;;;2.90;0.93;;;;;20.10;98198.00;;;;2096121;28;20240;-75
2023/04/01 02:55:00;;;;;;;2.40;1.00;;;;;20.20;98193.00;;;;2096041;28;20212;-75
2023/04/01 02:56:00;;;;;;;1.43;0.70;;;;;20.10;98210.00;;;;2096181;28;20212;-75
2023/04/01 02:57:01;;;;;;;2.37;0.97;;;;;20.10;98209.00;;;;2097165;28;20216;-75
2023/04/01 02:58:01;;;;;;;1.70;1.07;;;;;20.10;98206.00;;;;2104592;28;20222;-75
2023/04/01 02:59:01;;;;;;;1.17;0.70;;;;;20.10;98209.00;;;;2103398;28;20243;-75
2023/04/01 03:00:02;;;;;;;1.83;0.90;;;;;20.20;98205.00;;;;2100001;28;20219;-76
2023/04/01 03:01:02;;;;;;;1.47;1.00;;;;;20.10;98215.00;;;;2102350;28;20280;-76
2023/04/01 03:02:03;;;;;;;1.40;1.10;;;;;20.10;98212.00;;;;2095419;28;20463;-76
2023/04/01 03:03:03;;;;;;;1.10;0.73;;;;;20.10;98211.00;;;;2095628;28;20224;-75
2023/04/01 03:04:04;;;;;;;1.10;0.80;;;;;20.20;98224.00;;;;2088594;28;20216;-75
2023/04/01 03:05:05;;;;;;;1.83;0.77;;;;;20.10;98220.00;;;;2103361;28;20216;-75
2023/04/01 03:06:10;;;;;;;1.65;1.10;;;;;20.10;98222.00;;;;2095560;28;20297;-75
2023/04/01 03:07:10;;;;;;;1.30;0.80;;;;;20.10;98214.00;;;;2091393;28;20216;-75
2023/04/01 03:08:11;;;;;;;2.13;1.03;;;;;20.10;98216.00;;;;2095344;28;20847;-74
2023/04/01 03:09:11;;;;;;;2.08;0.70;;;;;20.10;98212.00;;;;2095029;28;20216;-74
2023/04/01 03:10:12;;;;;;;1.10;0.70;;;;;20.10;98213.00;;;;2096086;28;20220;-75
2023/04/01 03:11:12;;;;;;;1.30;0.70;;;;;20.20;98214.00;;;;2097221;28;20223;-74
2023/04/01 03:12:12;;;;;;;1.20;0.77;;;;;20.20;98211.00;;;;2104439;28;20219;-76
2023/04/01 03:13:13;;;;;;;3.10;0.50;;;;;20.20;98218.00;;;;2103149;28;20272;-75
2023/04/01 03:14:13;;;;;;;1.33;0.77;;;;;20.10;98218.00;;;;2095567;28;20223;-75
2023/04/01 03:15:16;;;;;;;1.33;0.70;;;;;20.10;98212.00;;;;2096251;28;20216;-75
2023/04/01 03:16:17;;;;;;;1.20;0.80;;;;;20.10;98215.00;;;;2095674;28;20204;-75
2023/04/01 03:17:17;;;;;;;1.10;0.50;;;;;20.10;98216.00;;;;2096244;28;20685;-75
2023/04/01 03:18:17;;;;;;;0.93;0.60;;;;;20.10;98203.00;;;;2098761;28;20216;-75
2023/04/01 03:19:18;;;;;;;2.00;0.70;;;;;20.10;98214.00;;;;2099995;28;20698;-75
2023/04/01 03:20:19;;;;;;;0.90;0.50;;;;;20.10;98211.00;;;;2096752;28;20214;-75
2023/04/01 03:21:21;;;;;;;1.60;1.08;;;;;20.10;98214.00;;;;2103609;28;20245;-75
2023/04/01 03:22:21;;;;;;;1.80;0.75;;;;;20.10;98207.00;;;;2104150;28;20214;-75
2023/04/01 03:23:21;;;;;;;1.40;0.80;;;;;20.10;98214.00;;;;2097840;28;20204;-79
2023/04/01 03:24:22;;;;;;;1.00;0.70;;;;;20.10;98213.00;;;;2096049;28;20314;-77
2023/04/01 03:25:22;;;;;;;1.03;0.60;;;;;20.10;98224.00;;;;2095803;28;20200;-79
2023/04/01 03:26:22;;;;;;;0.87;0.63;;;;;20.20;98225.00;;;;2095428;28;20553;-78
2023/04/01 03:27:23;;;;;;;2.70;0.70;;;;;20.20;98208.00;;;;2095722;28;20208;-77
2023/04/01 03:28:23;;;;;;;1.43;0.73;;;;;20.20;98219.00;;;;2096199;28;20243;-78
2023/04/01 03:29:24;;;;;;;1.07;0.60;;;;;20.20;98230.00;;;;2095816;28;20208;-70
2023/04/01 03:30:24;;;;;;;1.07;0.50;;;;;20.20;98210.00;;;;2095750;28;20643;-72
2023/04/01 03:31:24;;;;;;;1.53;0.60;;;;;20.20;98227.00;;;;2095436;28;20642;-72
2023/04/01 03:32:25;;;;;;;1.30;0.60;;;;;20.20;98226.00;;;;2098164;28;20667;-81
2023/04/01 03:33:25;;;;;;;1.00;0.60;;;;;20.20;98227.00;;;;2103162;28;20238;-72
2023/04/01 03:34:25;;;;;;;2.57;0.80;;;;;20.20;98221.00;;;;2096250;28;20216;-73
2023/04/01 03:35:26;;;;;;;2.13;0.60;;;;;20.20;98223.00;;;;2095085;28;20257;-72
2023/04/01 03:36:27;;;;;;;1.20;0.70;;;;;20.20;98225.00;;;;2095038;28;20683;-72
2023/04/01 03:37:27;;;;;;;2.30;0.80;;;;;20.10;98224.00;;;;2096278;28;20455;-73
2023/04/01 03:38:27;;;;;;;0.97;0.50;;;;;20.20;98223.00;;;;2092881;28;20600;-74
2023/04/01 03:39:28;;;;;;;1.00;0.70;;;;;20.20;98231.00;;;;2094917;28;20745;-74
2023/04/01 03:40:28;;;;;;;2.17;0.90;;;;;20.20;98223.00;;;;2095692;28;20212;-75
2023/04/01 03:41:28;;;;;;;1.40;0.80;;;;;20.20;98219.00;;;;2095576;28;20291;-74
2023/04/01 03:42:31;;;;;;;1.20;0.50;;;;;20.20;98226.00;;;;2095439;28;20373;-74
2023/04/01 03:43:32;;;;;;;2.78;0.73;;;;;20.20;98226.00;;;;2095231;28;20573;-77
2023/04/01 03:44:33;;;;;;;3.23;0.70;;;;;20.20;98231.00;;;;2096042;28;20226;-75
2023/04/01 03:45:33;;;;;;;1.00;0.50;;;;;20.20;98237.00;;;;2094915;28;20466;-75
2023/04/01 03:46:33;;;;;;;1.13;0.50;;;;;20.20;98229.00;;;;2096120;28;20307;-74
2023/04/01 03:47:34;;;;;;;1.73;0.57;;;;;20.20;98192.00;;;;2094814;28;20290;-75
2023/04/01 03:48:34;;;;;;;3.13;0.77;;;;;20.20;98230.00;;;;2094974;28;20652;-74
2023/04/01 03:49:35;;;;;;;1.53;0.60;;;;;20.20;98223.00;;;;2102688;28;20964;-75
2023/04/01 03:50:35;;;;;;;1.00;0.50;;;;;20.20;98232.00;;;;2095639;28;20291;-74
2023/04/01 03:51:35;;;;;;;1.17;0.50;;;;;20.20;98226.00;;;;2095166;28;20720;-74
2023/04/01 03:52:36;;;;;;;2.00;0.90;;;;;20.20;98227.00;;;;2095807;28;20216;-74
2023/04/01 03:53:36;;;;;;;1.67;0.50;;;;;20.20;98233.00;;;;2095573;28;20299;-78
2023/04/01 03:54:37;;;;;;;3.63;0.60;;;;;20.20;98233.00;;;;2095702;28;20212;-73
2023/04/01 03:55:37;;;;;;;1.30;0.50;;;;;20.20;98234.00;;;;2095723;28;20211;-73
2023/04/01 03:56:37;;;;;;;0.90;0.67;;;;;20.20;98238.00;;;;2095757;28;20256;-74
2023/04/01 03:57:38;;;;;;;0.90;0.40;;;;;20.20;98231.00;;;;2095466;28;20215;-73
2023/04/01 03:58:38;;;;;;;1.00;0.60;;;;;20.20;98242.00;;;;2099301;28;20207;-74
2023/04/01 03:59:39;;;;;;;1.20;0.53;;;;;20.20;98234.00;;;;2099801;28;20220;-74
2023/04/01 04:00:39;;;;;;;1.23;0.63;;;;;20.10;98234.00;;;;2095406;28;20856;-73
2023/04/01 04:01:39;;;;;;;2.30;0.60;;;;;20.10;98234.00;;;;2101589;28;20284;-74
2023/04/01 04:02:40;;;;;;;1.10;0.50;;;;;20.20;98233.00;;;;2101310;28;20219;-73
2023/04/01 04:03:40;;;;;;;1.30;0.70;;;;;20.10;98236.00;;;;2101678;28;20295;-74
2023/04/01 04:04:40;;;;;;;2.47;1.10;;;;;20.10;98236.00;;;;2103794;28;20211;-74
2023/04/01 04:05:48;;;;;;;1.80;1.17;;;;;20.10;98236.00;;;;2095596;28;21223;-74
2023/04/01 04:06:48;;;;;;;2.67;1.45;;;;;20.10;98237.00;;;;2088198;28;20209;-74
2023/04/01 04:07:48;;;;;;;2.23;2.03;;;;;20.20;98242.00;;;;2092558;28;20266;-74
2023/04/01 04:08:49;;;;;;;2.53;2.17;;;;;20.20;98236.00;;;;2095314;28;20363;-74
2023/04/01 04:09:49;;;;;;;4.93;4.13;;;;;20.20;98231.00;;;;2093020;28;20350;-74
2023/04/01 04:10:55;;;;;;;5.90;4.90;;;;;20.20;98238.00;;;;2093622;28;20200;-74
2023/04/01 04:11:55;;;;;;;6.00;5.43;;;;;20.20;98248.00;;;;2087458;28;20840;-74
2023/04/01 04:12:56;;;;;;;7.80;7.00;;;;;20.20;98230.00;;;;2095246;28;20247;-74
2023/04/01 04:13:56;;;;;;;9.43;8.50;;;;;20.10;98239.00;;;;2086788;28;20197;-74
2023/04/01 04:14:57;;;;;;;10.70;9.40;;;;;20.10;98245.00;;;;2079534;28;20240;-74
2023/04/01 04:15:58;;;;;;;11.57;10.37;;;;;20.10;98243.00;;;;2087367;28;20205;-73
2023/04/01 04:16:58;;;;;;;12.95;11.00;;;;;20.10;98247.00;;;;2088163;28;20205;-74
2023/04/01 04:17:58;;;;;;;15.23;12.33;;;;;20.10;98251.00;;;;2088977;28;20208;-74
2023/04/01 04:18:59;;;;;;;13.83;11.47;;;;;20.10;98242.00;;;;2089299;28;20231;-74
2023/04/01 04:19:59;;;;;;;14.73;12.63;;;;;20.10;98240.00;;;;2090564;28;20213;-73
2023/04/01 04:20:59;;;;;;;15.03;12.13;;;;;20.10;98242.00;;;;2088950;28;20216;-73
2023/04/01 04:22:01;;;;;;;16.17;13.13;;;;;20.10;98246.00;;;;2094182;28;20212;-74
2023/04/01 04:23:01;;;;;;;15.65;13.23;;;;;20.10;98240.00;;;;2089077;28;20197;-74
2023/04/01 04:24:02;;;;;;;16.90;13.53;;;;;20.10;98244.00;;;;2088401;28;20232;-74
2023/04/01 04:25:02;;;;;;;16.17;13.37;;;;;20.10;98243.00;;;;2088733;28;20213;-74
2023/04/01 04:26:04;;;;;;;14.53;13.03;;;;;20.10;98239.00;;;;2088621;28;20675;-74
2023/04/01 04:27:05;;;;;;;14.20;12.30;;;;;20.10;98244.00;;;;2089153;28;20266;-74
2023/04/01 04:28:05;;;;;;;18.03;13.37;;;;;20.10;98253.00;;;;2089015;28;20687;-74
2023/04/01 04:29:05;;;;;;;14.93;13.30;;;;;20.10;98246.00;;;;2088482;28;20240;-73
2023/04/01 04:30:06;;;;;;;15.60;13.90;;;;;20.10;98245.00;;;;2089010;28;20236;-73
2023/04/01 04:31:07;;;;;;;14.90;13.40;;;;;20.10;98242.00;;;;2092577;28;20216;-74
2023/04/01 04:32:07;;;;;;;18.23;16.30;;;;;20.10;98244.00;;;;2096322;28;20216;-73
2023/04/01 04:33:08;;;;;;;17.43;15.60;;;;;20.10;98252.00;;;;2088747;28;20232;-74
2023/04/01 04:34:08;;;;;;;18.97;16.77;;;;;20.10;98252.00;;;;2088916;28;20209;-74
2023/04/01 04:35:08;;;;;;;19.00;17.00;;;;;20.10;98247.00;;;;2088772;28;20217;-74
2023/04/01 04:36:09;;;;;;;20.60;18.47;;;;;20.10;98239.00;;;;2088907;28;20212;-74
2023/04/01 04:37:09;;;;;;;21.83;19.20;;;;;20.10;98243.00;;;;2088857;28;20266;-74
2023/04/01 04:38:09;;;;;;;23.43;19.97;;;;;20.10;98241.00;;;;2092712;28;20235;-74
2023/04/01 04:39:10;;;;;;;22.27;19.90;;;;;20.10;98253.00;;;;2088813;28;20233;-73
2023/04/01 04:40:10;;;;;;;23.10;20.47;;;;;20.10;98254.00;;;;2089501;28;20229;-74
2023/04/01 04:41:15;;;;;;;25.07;21.47;;;;;20.10;98256.00;;;;2080042;28;20229;-74
2023/04/01 04:42:15;;;;;;;26.00;20.95;;;;;20.10;98254.00;;;;2071849;28;20309;-74
2023/04/01 04:43:16;;;;;;;22.43;19.23;;;;;20.10;98256.00;;;;2071722;28;20222;-73
2023/04/01 04:44:16;;;;;;;23.63;21.13;;;;;20.10;98251.00;;;;2080170;28;20594;-74
2023/04/01 04:45:17;;;;;;;21.80;19.50;;;;;20.10;98255.00;;;;2088290;28;20225;-73
2023/04/01 04:46:17;;;;;;;22.10;19.73;;;;;20.10;98252.00;;;;2088791;28;20213;-73
2023/04/01 04:47:17;;;;;;;18.60;16.60;;;;;20.00;98247.00;;;;2088147;28;20246;-74
2023/04/01 04:48:18;;;;;;;22.00;18.50;;;;;20.10;98254.00;;;;2088467;28;20661;-73
2023/04/01 04:49:18;;;;;;;22.60;19.50;;;;;20.10;98254.00;;;;2089228;28;20540;-74
2023/04/01 04:50:19;;;;;;;22.07;18.60;;;;;20.10;98252.00;;;;2088814;28;20239;-73
2023/04/01 04:51:19;;;;;;;18.90;16.80;;;;;20.00;98261.00;;;;2088701;28;20270;-73
2023/04/01 04:52:19;;;;;;;18.20;16.27;;;;;20.10;98263.00;;;;2093361;28;20250;-73
2023/04/01 04:53:20;;;;;;;19.23;16.23;;;;;20.10;98262.00;;;;2092479;28;20631;-74
2023/04/01 04:54:20;;;;;;;17.87;15.33;;;;;20.10;98262.00;;;;2088483;28;20682;-73
2023/04/01 04:55:21;;;;;;;16.10;14.40;;;;;20.10;98259.00;;;;2093172;28;20569;-74
2023/04/01 04:56:21;;;;;;;17.90;15.47;;;;;20.10;98261.00;;;;2094663;28;20212;-74
2023/04/01 04:57:22;;;;;;;17.10;14.33;;;;;20.10;98257.00;;;;2094712;28;20222;-74
2023/04/01 04:58:22;;;;;;;16.37;14.33;;;;;20.10;98269.00;;;;2095345;28;20221;-74
2023/04/01 04:59:22;;;;;;;14.70;13.20;;;;;20.10;98268.00;;;;2091686;28;20263;-74
2023/04/01 05:00:23;;;;;;;16.17;13.17;;;;;20.10;98262.00;;;;2090250;28;20221;-73
2023/04/01 05:01:23;;;;;;;15.40;13.53;;;;;20.10;98270.00;;;;2093283;28;20240;-74
2023/04/01 05:02:23;;;;;;;16.40;13.57;;;;;20.10;98260.00;;;;2094015;28;20660;-73
2023/04/01 05:03:24;;;;;;;15.43;13.33;;;;;20.10;98275.00;;;;2104292;28;20223;-74
2023/04/01 05:04:24;;;;;;;16.10;13.53;;;;;20.10;98280.00;;;;2098702;28;20208;-74
2023/04/01 05:05:24;;;;;;;15.30;13.03;;;;;20.10;98266.00;;;;2105247;28;20219;-74
2023/04/01 05:06:25;;;;;;;14.93;13.27;;;;;20.10;98264.00;;;;2100103;28;20222;-74
2023/04/01 05:07:25;;;;;;;16.47;14.67;;;;;20.10;98273.00;;;;2102783;28;20215;-74
2023/04/01 05:08:26;;;;;;;17.07;15.27;;;;;20.10;98272.00;;;;2085628;28;20239;-74
2023/04/01 05:09:26;;;;;;;19.23;15.87;;;;;20.10;98265.00;;;;2079595;28;20302;-74
2023/04/01 05:10:26;;;;;;;19.30;16.27;;;;;20.10;98260.00;;;;2088675;28;20205;-74